createdAt,value
2022-10-13T00:00:20.742Z,19.55
2022-10-13T00:03:06.077Z,19.55
2022-10-13T00:05:51.797Z,19.56
2022-10-13T00:08:38.172Z,19.54
2022-10-13T00:11:26.814Z,19.56
2022-10-13T00:14:12.292Z,19.55
2022-10-13T00:16:57.509Z,19.55
2022-10-13T00:19:42.898Z,19.53
2022-10-13T00:22:28.072Z,19.53
2022-10-13T00:25:13.432Z,19.53
2022-10-13T00:27:59.789Z,19.55
2022-10-13T00:30:50.510Z,19.53
2022-10-13T00:33:35.770Z,19.54
2022-10-13T00:36:23.480Z,19.53
2022-10-13T00:39:08.971Z,19.53
2022-10-13T00:41:54.536Z,19.52
2022-10-13T00:45:00.718Z,19.52
2022-10-13T00:47:50.143Z,19.52
2022-10-13T00:50:40.943Z,19.53
2022-10-13T00:53:31.497Z,19.53
2022-10-13T00:56:19.728Z,19.52
2022-10-13T00:59:13.568Z,19.52
2022-10-13T01:02:00.807Z,19.52
2022-10-13T01:04:47.852Z,19.51
2022-10-13T01:07:34.806Z,19.51
2022-10-13T01:10:39.959Z,19.51
2022-10-13T01:13:31.469Z,19.49
2022-10-13T01:16:40.930Z,19.52
2022-10-13T01:20:02.489Z,19.49
2022-10-13T01:22:59.811Z,19.50
2022-10-13T01:26:11.078Z,19.50
2022-10-13T01:29:12.015Z,19.51
2022-10-13T01:32:16.560Z,19.50
2022-10-13T01:35:22.619Z,19.50
2022-10-13T01:38:25.484Z,19.50
2022-10-13T01:41:38.576Z,19.50
2022-10-13T01:44:34.175Z,19.50
2022-10-13T01:47:21.582Z,19.49
2022-10-13T01:50:08.992Z,19.49
2022-10-13T01:52:59.304Z,19.50
2022-10-13T01:55:59.764Z,19.49
2022-10-13T01:58:47.610Z,19.49
2022-10-13T02:01:42.316Z,19.49
2022-10-13T02:04:29.410Z,19.48
2022-10-13T02:07:30.023Z,19.48
2022-10-13T02:10:27.315Z,19.48
2022-10-13T02:13:17.998Z,19.48
2022-10-13T02:16:03.492Z,19.47
2022-10-13T02:18:50.410Z,19.47
2022-10-13T02:21:36.148Z,19.47
2022-10-13T02:24:21.407Z,19.47
2022-10-13T02:27:08.735Z,19.48
2022-10-13T02:29:58.018Z,19.48
2022-10-13T02:32:47.772Z,19.47
2022-10-13T02:35:33.817Z,19.46
2022-10-13T02:38:19.501Z,19.45
2022-10-13T02:41:05.030Z,19.46
2022-10-13T02:43:50.143Z,19.46
2022-10-13T02:46:35.671Z,19.46
2022-10-13T02:49:21.007Z,19.44
2022-10-13T02:52:07.256Z,19.44
2022-10-13T02:55:00.912Z,19.45
2022-10-13T02:57:46.553Z,19.47
2022-10-13T03:00:31.856Z,19.43
2022-10-13T03:03:17.198Z,19.42
2022-10-13T03:06:02.879Z,19.42
2022-10-13T03:08:48.252Z,19.43
2022-10-13T03:11:34.112Z,19.41
2022-10-13T03:14:19.397Z,19.41
2022-10-13T03:17:07.800Z,19.41
2022-10-13T03:19:55.858Z,19.41
2022-10-13T03:22:42.474Z,19.39
2022-10-13T03:25:30.116Z,19.41
2022-10-13T03:28:15.450Z,19.41
2022-10-13T03:31:07.302Z,19.42
2022-10-13T03:33:52.502Z,19.42
2022-10-13T03:36:37.978Z,19.42
2022-10-13T03:39:23.115Z,19.41
2022-10-13T03:42:09.172Z,19.40
2022-10-13T03:44:56.480Z,19.38
2022-10-13T03:47:41.976Z,19.39
2022-10-13T03:50:27.183Z,19.41
2022-10-13T03:53:12.983Z,19.41
2022-10-13T03:55:58.171Z,19.37
2022-10-13T03:58:44.160Z,19.36
2022-10-13T04:01:30.678Z,19.39
2022-10-13T04:04:15.883Z,19.41
2022-10-13T04:07:01.998Z,19.41
2022-10-13T04:09:47.192Z,19.43
2022-10-13T04:12:32.429Z,19.46
2022-10-13T04:15:17.754Z,19.47
2022-10-13T04:18:03.152Z,19.51
2022-10-13T04:20:48.607Z,19.49
2022-10-13T04:23:33.804Z,19.53
2022-10-13T04:26:22.229Z,19.51
2022-10-13T04:29:09.614Z,19.50
2022-10-13T04:31:55.579Z,19.50
2022-10-13T04:34:41.659Z,19.50
2022-10-13T04:37:27.300Z,19.49
2022-10-13T04:40:12.929Z,19.50
2022-10-13T04:42:58.587Z,19.49
2022-10-13T04:45:43.809Z,19.49
2022-10-13T04:48:29.478Z,19.53
2022-10-13T04:51:17.577Z,19.55
2022-10-13T04:54:05.488Z,19.58
2022-10-13T04:56:51.012Z,19.62
2022-10-13T04:59:36.266Z,19.64
2022-10-13T05:02:21.699Z,19.67
2022-10-13T05:05:07.891Z,19.69
2022-10-13T05:07:53.119Z,19.72
2022-10-13T05:10:38.336Z,19.75
2022-10-13T05:13:24.972Z,19.73
2022-10-13T05:16:13.362Z,19.75
2022-10-13T05:18:58.916Z,19.76
2022-10-13T05:21:44.187Z,19.76
2022-10-13T05:24:38.920Z,19.75
2022-10-13T05:27:24.456Z,19.73
2022-10-13T05:30:10.374Z,19.74
2022-10-13T05:32:55.698Z,19.72
2022-10-13T05:35:41.306Z,19.70
2022-10-13T05:38:26.612Z,19.69
2022-10-13T05:41:13.903Z,19.69
2022-10-13T05:44:09.251Z,19.65
2022-10-13T05:47:05.037Z,19.65
2022-10-13T05:49:52.643Z,19.66
2022-10-13T05:52:37.927Z,19.64
2022-10-13T05:55:23.240Z,19.64
2022-10-13T05:58:08.721Z,19.61
2022-10-13T06:00:55.168Z,19.60
2022-10-13T06:03:42.042Z,19.57
2022-10-13T06:06:31.279Z,19.57
2022-10-13T06:09:17.555Z,19.58
2022-10-13T06:12:03.352Z,19.56
2022-10-13T06:14:48.939Z,19.55
2022-10-13T06:17:38.120Z,19.53
2022-10-13T06:20:23.930Z,19.52
2022-10-13T06:23:09.326Z,19.50
2022-10-13T06:25:54.603Z,19.49
2022-10-13T06:28:39.852Z,19.48
2022-10-13T06:31:25.011Z,19.47
2022-10-13T06:34:10.166Z,19.45
2022-10-13T06:36:55.716Z,19.46
2022-10-13T06:39:42.095Z,19.45
2022-10-13T06:42:30.950Z,19.43
2022-10-13T06:45:28.324Z,19.42
2022-10-13T06:48:13.978Z,19.44
2022-10-13T06:51:04.640Z,19.42
2022-10-13T06:53:49.945Z,19.40
2022-10-13T06:56:39.576Z,19.39
2022-10-13T06:59:29.504Z,19.38
2022-10-13T07:02:14.729Z,19.38
2022-10-13T07:05:00.118Z,19.39
2022-10-13T07:07:45.634Z,19.39
2022-10-13T07:10:30.732Z,19.37
2022-10-13T07:13:16.090Z,19.35
2022-10-13T07:16:05.688Z,19.36
2022-10-13T07:18:51.153Z,19.35
2022-10-13T07:21:36.823Z,19.35
2022-10-13T07:24:22.433Z,19.36
2022-10-13T07:27:07.999Z,19.35
2022-10-13T07:29:53.577Z,19.36
2022-10-13T07:32:42.001Z,19.36
2022-10-13T07:35:30.644Z,19.35
2022-10-13T07:38:16.685Z,19.35
2022-10-13T07:41:09.458Z,19.36
2022-10-13T07:43:57.985Z,19.36
2022-10-13T07:46:43.226Z,19.35
2022-10-13T07:49:28.532Z,19.36
2022-10-13T07:52:15.513Z,19.36
2022-10-13T07:55:00.763Z,19.36
2022-10-13T07:57:46.028Z,19.36
2022-10-13T08:00:31.319Z,19.37
2022-10-13T08:03:16.746Z,19.37
2022-10-13T08:06:04.066Z,19.37
2022-10-13T08:08:49.274Z,19.37
2022-10-13T08:11:38.593Z,19.40
2022-10-13T08:14:24.487Z,19.38
2022-10-13T08:17:09.719Z,19.39
2022-10-13T08:19:55.314Z,19.39
2022-10-13T08:22:44.371Z,19.39
2022-10-13T08:25:29.702Z,19.39
2022-10-13T08:28:24.208Z,19.42
2022-10-13T08:31:09.684Z,19.43
2022-10-13T08:33:54.918Z,19.43
2022-10-13T08:36:40.563Z,19.44
2022-10-13T08:39:26.163Z,19.45
2022-10-13T08:42:18.301Z,19.45
2022-10-13T08:45:35.842Z,19.45
2022-10-13T08:48:13.855Z,19.46
2022-10-13T08:51:07.516Z,19.46
2022-10-13T08:53:54.846Z,19.47
2022-10-13T08:56:40.197Z,19.47
2022-10-13T08:59:25.522Z,19.47
2022-10-13T09:02:29.358Z,19.47
2022-10-13T09:05:27.994Z,19.46
2022-10-13T09:08:20.519Z,19.47
2022-10-13T09:11:05.752Z,19.47
2022-10-13T09:13:55.532Z,19.47
2022-10-13T09:16:43.500Z,19.46
2022-10-13T09:19:34.107Z,19.46
2022-10-13T09:22:24.149Z,19.46
2022-10-13T09:25:20.586Z,19.48
2022-10-13T09:28:15.817Z,19.47
2022-10-13T09:31:17.051Z,19.46
2022-10-13T09:34:13.500Z,19.47
2022-10-13T09:37:04.867Z,19.46
2022-10-13T09:40:14.748Z,19.47
2022-10-13T09:43:01.831Z,19.46
2022-10-13T09:45:47.334Z,19.47
2022-10-13T09:48:36.564Z,19.46
2022-10-13T09:51:36.828Z,19.46
2022-10-13T09:54:39.944Z,19.48
2022-10-13T09:57:41.262Z,19.48
2022-10-13T10:00:28.239Z,19.49
2022-10-13T10:03:22.268Z,19.48
2022-10-13T10:06:12.279Z,19.47
2022-10-13T10:09:05.164Z,19.47
2022-10-13T10:11:53.452Z,19.47
2022-10-13T10:14:39.340Z,19.47
2022-10-13T10:17:43.867Z,19.48
2022-10-13T10:20:54.294Z,19.47
2022-10-13T10:23:53.963Z,19.47
2022-10-13T10:26:51.349Z,19.47
2022-10-13T10:30:01.837Z,19.47
2022-10-13T10:32:50.201Z,19.46
2022-10-13T10:35:39.056Z,19.45
2022-10-13T10:38:45.830Z,19.45
2022-10-13T10:42:00.850Z,19.46
2022-10-13T10:44:49.181Z,19.45
2022-10-13T10:47:42.044Z,19.45
2022-10-13T10:50:30.856Z,19.46
2022-10-13T10:53:30.770Z,19.45
2022-10-13T10:56:27.719Z,19.46
2022-10-13T10:59:27.859Z,19.47
2022-10-13T11:02:34.911Z,19.47
2022-10-13T11:05:20.389Z,19.47
2022-10-13T11:08:28.733Z,19.48
2022-10-13T11:11:24.937Z,19.49
2022-10-13T11:14:29.484Z,19.49
2022-10-13T11:17:41.665Z,19.51
2022-10-13T11:20:27.016Z,19.49
2022-10-13T11:23:12.528Z,19.50
2022-10-13T11:26:26.253Z,19.51
2022-10-13T11:29:19.776Z,19.51
2022-10-13T11:32:05.250Z,19.49
2022-10-13T11:35:05.781Z,19.51
2022-10-13T11:38:05.634Z,19.52
2022-10-13T11:41:17.672Z,19.54
2022-10-13T11:44:13.329Z,19.56
2022-10-13T11:47:15.075Z,19.56
2022-10-13T11:50:25.334Z,19.57
2022-10-13T11:53:33.854Z,19.57
2022-10-13T11:56:39.360Z,19.57
2022-10-13T11:59:35.672Z,19.57
2022-10-13T12:02:23.451Z,19.57
2022-10-13T12:05:25.352Z,19.57
2022-10-13T12:08:10.848Z,19.57
2022-10-13T12:10:59.990Z,19.56
2022-10-13T12:13:47.121Z,19.56
2022-10-13T12:16:33.944Z,19.56
2022-10-13T12:19:22.630Z,19.57
2022-10-13T12:22:12.459Z,19.55
2022-10-13T12:25:06.177Z,19.55
2022-10-13T12:27:54.578Z,19.56
2022-10-13T12:30:39.885Z,19.57
2022-10-13T12:33:35.466Z,19.58
2022-10-13T12:36:25.934Z,19.59
2022-10-13T12:39:15.325Z,19.64
2022-10-13T12:42:02.575Z,19.62
2022-10-13T12:44:48.306Z,19.62
2022-10-13T12:47:49.340Z,19.60
2022-10-13T12:50:37.381Z,19.61
2022-10-13T12:53:28.601Z,19.64
2022-10-13T12:56:29.385Z,19.64
2022-10-13T12:59:19.578Z,19.65
2022-10-13T13:02:22.159Z,19.65
2022-10-13T13:05:30.912Z,19.67
2022-10-13T13:08:33.034Z,19.70
2022-10-13T13:11:25.079Z,19.70
2022-10-13T13:14:37.619Z,19.75
2022-10-13T13:17:56.533Z,19.77
2022-10-13T13:20:37.970Z,19.79
2022-10-13T13:23:23.760Z,19.82
2022-10-13T13:26:21.632Z,19.82
2022-10-13T13:29:10.767Z,19.85
2022-10-13T13:31:56.232Z,19.89
2022-10-13T13:34:44.519Z,19.91
2022-10-13T13:37:36.856Z,19.91
2022-10-13T13:40:24.896Z,19.94
2022-10-13T13:43:10.129Z,20.00
2022-10-13T13:54:16.465Z,20.08
2022-10-13T13:57:01.350Z,20.06
2022-10-13T13:59:47.045Z,20.09
2022-10-13T14:02:32.328Z,20.10
2022-10-13T14:05:17.514Z,20.11
2022-10-13T14:08:03.102Z,20.10
2022-10-13T14:10:48.417Z,20.12
2022-10-13T14:13:36.311Z,20.12
2022-10-13T14:16:22.216Z,20.15
2022-10-13T14:19:11.396Z,20.17
2022-10-13T14:21:56.781Z,20.18
2022-10-13T14:24:42.128Z,20.18
2022-10-13T14:27:28.842Z,20.19
2022-10-13T14:30:14.823Z,20.20
2022-10-13T14:33:00.437Z,20.20
2022-10-13T14:35:47.657Z,20.21
2022-10-13T14:38:35.245Z,20.20
2022-10-13T14:41:20.699Z,20.21
2022-10-13T14:44:11.845Z,20.25
2022-10-13T14:46:58.342Z,20.26
2022-10-13T14:49:44.120Z,20.24
2022-10-13T14:52:29.431Z,20.26
2022-10-13T14:55:15.457Z,20.29
2022-10-13T14:58:03.072Z,20.31
2022-10-13T15:00:48.395Z,20.31
2022-10-13T15:03:33.765Z,20.34
2022-10-13T15:06:21.462Z,20.33
2022-10-13T15:11:54.815Z,20.35
2022-10-13T15:14:39.970Z,20.36
2022-10-13T15:17:25.397Z,20.37
2022-10-13T15:20:11.037Z,20.35
2022-10-13T15:22:56.201Z,20.35
2022-10-13T15:25:51.000Z,20.35
2022-10-13T15:28:39.333Z,20.34
2022-10-13T15:31:30.989Z,20.30
2022-10-13T15:34:16.412Z,20.30
2022-10-13T15:37:01.622Z,20.27
2022-10-13T15:39:47.382Z,20.33
2022-10-13T15:42:32.871Z,20.32
2022-10-13T15:45:18.367Z,20.32
2022-10-13T15:48:06.566Z,20.31
2022-10-13T15:50:51.799Z,20.31
2022-10-13T15:53:37.551Z,20.34
2022-10-13T15:56:23.178Z,20.35
2022-10-13T15:59:08.844Z,20.36
2022-10-13T16:01:54.007Z,20.37
2022-10-13T16:04:39.272Z,20.35
2022-10-13T16:07:24.598Z,20.35
2022-10-13T16:10:12.402Z,20.36
2022-10-13T16:12:57.616Z,20.39
2022-10-13T16:15:42.998Z,20.38
2022-10-13T16:18:29.716Z,20.35
2022-10-13T16:21:21.542Z,20.34
2022-10-13T16:24:07.642Z,20.32
2022-10-13T16:26:53.461Z,20.31
2022-10-13T16:29:39.688Z,20.32
2022-10-13T16:32:25.774Z,20.32
2022-10-13T16:35:12.598Z,20.33
2022-10-13T16:37:58.419Z,20.34
2022-10-13T16:40:44.223Z,20.37
2022-10-13T16:43:30.877Z,20.40
2022-10-13T16:46:19.084Z,20.39
2022-10-13T16:49:05.035Z,20.40
2022-10-13T16:51:50.480Z,20.38
2022-10-13T16:54:36.522Z,20.40
2022-10-13T16:57:22.850Z,20.44
2022-10-13T17:00:09.846Z,20.46
2022-10-13T17:02:55.511Z,20.45
2022-10-13T17:05:40.844Z,20.47
2022-10-13T17:08:26.102Z,20.49
2022-10-13T17:11:20.797Z,20.47
2022-10-13T17:14:07.079Z,20.47
2022-10-13T17:16:57.414Z,20.48
2022-10-13T17:19:44.296Z,20.51
2022-10-13T17:22:30.073Z,20.53
2022-10-13T17:25:15.553Z,20.48
2022-10-13T17:28:00.820Z,20.50
2022-10-13T17:30:56.911Z,20.48
2022-10-13T17:33:43.055Z,20.46
2022-10-13T17:36:31.704Z,20.47
2022-10-13T17:39:19.759Z,20.43
2022-10-13T17:42:05.210Z,20.45
2022-10-13T17:44:50.599Z,20.47
2022-10-13T17:47:36.161Z,20.44
2022-10-13T17:50:22.241Z,20.41
2022-10-13T17:53:07.759Z,20.35
2022-10-13T17:55:54.763Z,20.34
2022-10-13T17:58:41.973Z,20.29
2022-10-13T18:01:34.436Z,20.25
2022-10-13T18:04:20.120Z,20.22
2022-10-13T18:07:05.356Z,20.19
2022-10-13T18:09:52.717Z,20.17
2022-10-13T18:12:38.001Z,20.12
2022-10-13T18:15:23.149Z,20.14
2022-10-13T18:18:09.245Z,20.10
2022-10-13T18:29:28.039Z,19.99
2022-10-13T18:32:12.813Z,19.95
2022-10-13T18:34:58.145Z,19.94
2022-10-13T18:37:43.727Z,19.94
2022-10-13T18:40:29.115Z,19.93
2022-10-13T18:43:14.666Z,19.91
2022-10-13T18:46:01.224Z,19.89
2022-10-13T18:48:46.615Z,19.92
2022-10-13T18:51:36.234Z,19.86
2022-10-13T18:54:21.924Z,19.85
2022-10-13T18:57:07.268Z,19.83
2022-10-13T18:59:52.352Z,19.85
2022-10-13T19:02:44.443Z,19.85
2022-10-13T19:05:29.744Z,19.83
2022-10-13T19:08:15.487Z,19.81
2022-10-13T19:11:00.892Z,19.81
2022-10-13T19:13:47.218Z,19.79
2022-10-13T19:16:35.056Z,19.78
2022-10-13T19:19:20.610Z,19.77
2022-10-13T19:22:07.785Z,19.76
2022-10-13T19:24:52.963Z,19.77
2022-10-13T19:27:38.313Z,19.76
2022-10-13T19:30:26.323Z,19.75
2022-10-13T19:33:13.943Z,19.75
2022-10-13T19:36:05.846Z,19.72
2022-10-13T19:38:51.478Z,19.72
2022-10-13T19:41:37.044Z,19.72
2022-10-13T19:44:24.832Z,19.71
2022-10-13T19:47:10.390Z,19.71
2022-10-13T19:49:55.791Z,19.70
2022-10-13T19:52:42.194Z,19.68
2022-10-13T19:55:28.237Z,19.68
2022-10-13T19:58:16.270Z,19.66
2022-10-13T20:01:04.092Z,19.66
2022-10-13T20:03:49.881Z,19.65
2022-10-13T20:06:35.365Z,19.63
2022-10-13T20:09:20.913Z,19.63
2022-10-13T20:12:06.552Z,19.62
2022-10-13T20:14:55.152Z,19.61
2022-10-13T20:17:40.557Z,19.61
2022-10-13T20:20:25.943Z,19.61
2022-10-13T20:23:11.910Z,19.61
2022-10-13T20:26:03.916Z,19.63
2022-10-13T20:28:54.452Z,19.62
2022-10-13T20:31:39.775Z,19.62
2022-10-13T20:34:25.043Z,19.59
2022-10-13T20:37:10.580Z,19.59
2022-10-13T20:39:57.192Z,19.59
2022-10-13T20:42:42.584Z,19.57
2022-10-13T20:45:29.901Z,19.56
2022-10-13T20:48:15.270Z,19.56
2022-10-13T20:51:06.515Z,19.54
2022-10-13T20:53:52.098Z,19.54
2022-10-13T20:56:37.888Z,19.53
2022-10-13T20:59:23.559Z,19.51
2022-10-13T21:02:13.967Z,19.53
2022-10-13T21:04:59.196Z,19.51
2022-10-13T21:07:44.944Z,19.51
2022-10-13T21:10:30.191Z,19.52
2022-10-13T21:13:16.027Z,19.50
2022-10-13T21:16:10.473Z,19.48
2022-10-13T21:18:57.280Z,19.49
2022-10-13T21:21:42.568Z,19.48
2022-10-13T21:24:27.994Z,19.47
2022-10-13T21:27:13.284Z,19.47
2022-10-13T21:29:58.632Z,19.48
2022-10-13T21:32:43.848Z,19.47
2022-10-13T21:35:29.078Z,19.46
2022-10-13T21:38:14.344Z,19.45
2022-10-13T21:41:00.192Z,19.46
2022-10-13T21:43:45.737Z,19.45
2022-10-13T21:46:33.270Z,19.44
2022-10-13T21:49:18.789Z,19.45
2022-10-13T21:52:04.349Z,19.44
2022-10-13T21:54:50.178Z,19.44
2022-10-13T21:57:35.478Z,19.44
2022-10-13T22:00:20.787Z,19.43
2022-10-13T22:03:06.023Z,19.44
2022-10-13T22:05:51.176Z,19.44
2022-10-13T22:08:40.946Z,19.44
2022-10-13T22:11:42.226Z,19.43
2022-10-13T22:14:30.510Z,19.44
2022-10-13T22:17:15.699Z,19.44
2022-10-13T22:20:00.894Z,19.44
2022-10-13T22:22:46.660Z,19.44
2022-10-13T22:25:32.154Z,19.45
2022-10-13T22:28:17.671Z,19.44
2022-10-13T22:31:07.068Z,19.44
2022-10-13T22:33:53.802Z,19.44
2022-10-13T22:36:44.560Z,19.44
2022-10-13T22:39:30.300Z,19.45
2022-10-13T22:42:22.799Z,19.45
2022-10-13T22:45:08.470Z,19.45
2022-10-13T22:47:54.066Z,19.43
2022-10-13T22:50:39.347Z,19.45
2022-10-13T22:53:24.559Z,19.44
2022-10-13T22:56:13.684Z,19.46
2022-10-13T22:59:06.326Z,19.44
2022-10-13T23:01:51.482Z,19.46
2022-10-13T23:04:36.647Z,19.44
2022-10-13T23:07:22.324Z,19.44
2022-10-13T23:10:08.200Z,19.45
2022-10-13T23:12:54.726Z,19.44
2022-10-13T23:15:40.192Z,19.45
2022-10-13T23:18:25.294Z,19.44
2022-10-13T23:21:13.820Z,19.45
2022-10-13T23:24:05.383Z,19.45
2022-10-13T23:26:50.700Z,19.45
2022-10-13T23:29:36.031Z,19.44
2022-10-13T23:32:21.276Z,19.44
2022-10-13T23:35:06.700Z,19.44
2022-10-13T23:37:52.875Z,19.43
2022-10-13T23:40:38.498Z,19.43
2022-10-13T23:43:23.703Z,19.43
2022-10-13T23:46:10.713Z,19.43
2022-10-13T23:48:56.826Z,19.43
2022-10-13T23:51:45.185Z,19.41
2022-10-13T23:54:31.126Z,19.43
2022-10-13T23:57:16.493Z,19.41
